Keyser, West Virginia
Current Conditions -  °F | °C
As of 4:28 PM on Wednesday 17 Dec 2014 (Local Time) from KCBE Reporting Station
Overcast Overcast  
Wind Chill: 33°   Ceiling: 3800
Heat Index: 39°   Visibility: 10mi
Dew Point: 25°   Wind: 9mph
Humidity: 56%   Direction: 280°W
Pressure: 30.1"   Gusts: 22mph
Location:  39.44°N, 78.98°W
Report Text: KCBE 172128Z AUTO 28008G19KT 251V311 10SM OVC038 04/M04 A3010 RMK AO1
Loading
Personal Weather Stations






























Interactive Weather Map New forecast layout! Learn more

10-Day Weather Forecast

Advertisements
Track Severe Weather on mobile